Main page
METAR-TAF:

METAR-TAF

Airports :

Ouagadougou Airport

Ouagadougou, Burkina Faso

latitude: 12-21N, longitude: 001-31W, elevation: 316 m

Current weather observation

The report was made 1 hour and 2 minutes ago, at 07:00 UTC
Wind 7 kt from the North
Temperature 19°C
Humidity 14%
Pressure 1016 hPa
Visibility 10 km or more
no clouds below 1500 m and no cumulonimbus

METAR: DFFD 200700Z 01007KT CAVOK 19/M09 Q1016 NOSIG

Time: 08:02 (08:02 UTC)

Forecast

The report was made 3 hours and 2 minutes ago, at 05:00 UTC
Forecast valid from 20 at 06 UTC to 21 at 12 UTC
Wind 8 kt from the North/Northeast
Visibility: 8000 m
Temporary
from 20 at 06 UTC to 20 at 10 UTC
Visibility: 4000 m
widespread dust
Temporary
from 20 at 17 UTC to 20 at 20 UTC
Visibility: 4000 m
widespread dust
Temporary
from 21 at 06 UTC to 21 at 10 UTC
Visibility: 3500 m
widespread dust

TAF: DFFD 200500Z 2006/2112 02008KT 8000 NSC TEMPO 2006/2010 4000 DU TEMPO 2017/2020 4000 DU TEMPO 2106/2110 3500 DU

Weather observations and forecasts of more than 4000 airports (METAR and TAF reports).

The available stations are represented by yellow and red dots on the map.

Hover mouse over dot to see the name of the station.

Then click to see weather observations and forecasts.

To change the map : click on the green buttons with a black cross to zoom in, on the green button with a dash to zoom out, or on the green arrows for adjacent maps.


METAR-TAF: